createdAt,value
2023-03-01T00:14:37.591Z,-5.90
2023-03-01T00:16:13.887Z,-5.70
2023-03-01T00:19:22.906Z,-5.80
2023-03-01T00:28:49.602Z,-5.80
2023-03-01T00:46:04.779Z,-5.90
2023-03-01T00:47:37.850Z,-5.90
2023-03-01T00:55:28.512Z,-6.00
2023-03-01T00:58:35.238Z,-6.00
2023-03-01T01:15:48.892Z,-6.00
2023-03-01T01:20:28.798Z,-5.90
2023-03-01T01:25:09.856Z,-6.00
2023-03-01T01:26:45.243Z,-6.00
2023-03-01T01:34:33.462Z,-6.00
2023-03-01T01:36:06.585Z,-6.00
2023-03-01T01:42:22.983Z,-5.90
2023-03-01T01:47:20.208Z,-5.90
2023-03-01T02:03:25.919Z,-6.10
2023-03-01T02:08:14.633Z,-6.20
2023-03-01T06:15:02.470Z,-6.30
2023-03-01T06:16:35.521Z,-6.30
2023-03-01T06:18:08.688Z,-6.20
2023-03-01T06:19:41.793Z,-6.20
2023-03-01T06:21:14.944Z,-6.20
2023-03-01T06:27:32.074Z,-5.30
2023-03-01T06:29:05.126Z,-4.70
2023-03-01T06:30:38.447Z,-4.00
2023-03-01T06:32:11.607Z,-3.30
2023-03-01T06:33:45.690Z,-2.70
2023-03-01T06:35:20.423Z,-2.10
2023-03-01T06:36:53.609Z,-1.20
2023-03-01T06:38:26.744Z,-0.80
2023-03-01T06:39:59.898Z,-0.60
2023-03-01T06:41:34.735Z,0.00
2023-03-01T06:43:08.489Z,0.80
2023-03-01T06:44:41.571Z,1.20
2023-03-01T06:46:14.784Z,1.70
2023-03-01T06:47:48.625Z,1.90
2023-03-01T06:49:22.041Z,2.20
2023-03-01T06:50:55.379Z,2.50
2023-03-01T06:52:28.485Z,2.70
2023-03-01T06:54:01.861Z,2.60
2023-03-01T06:55:35.268Z,2.20
2023-03-01T06:57:09.758Z,2.30
2023-03-01T06:58:42.848Z,2.70
2023-03-01T07:00:17.124Z,2.70
2023-03-01T07:01:51.254Z,3.00
2023-03-01T07:03:24.954Z,3.20
2023-03-01T07:04:58.130Z,3.10
2023-03-01T07:06:31.581Z,2.90
2023-03-01T07:08:05.002Z,2.60
2023-03-01T07:09:38.047Z,2.50
2023-03-01T07:11:11.177Z,2.50
2023-03-01T07:12:47.376Z,2.60
2023-03-01T07:14:21.220Z,2.50
2023-03-01T07:15:54.540Z,2.30
2023-03-01T07:17:27.724Z,2.10
2023-03-01T07:19:00.976Z,1.70
2023-03-01T07:20:34.016Z,1.50
2023-03-01T07:22:08.775Z,1.40
2023-03-01T07:23:42.118Z,1.30
2023-03-01T07:25:15.221Z,1.40
2023-03-01T07:26:50.878Z,1.30
2023-03-01T07:28:26.487Z,1.40
2023-03-01T07:29:59.533Z,1.40
2023-03-01T07:31:32.904Z,1.70
2023-03-01T07:33:06.204Z,1.40
2023-03-01T07:34:39.441Z,1.80
2023-03-01T07:36:12.628Z,2.20
2023-03-01T07:37:46.055Z,2.40
2023-03-01T07:39:19.814Z,2.80
2023-03-01T07:40:53.148Z,2.90
2023-03-01T07:42:26.665Z,3.10
2023-03-01T07:44:01.243Z,3.40
2023-03-01T07:45:34.584Z,3.50
2023-03-01T07:47:07.843Z,3.70
2023-03-01T07:48:41.015Z,4.20
2023-03-01T07:50:14.481Z,4.30
2023-03-01T07:51:48.164Z,4.70
2023-03-01T07:53:21.241Z,4.50
2023-03-01T07:54:54.356Z,4.00
2023-03-01T07:56:27.370Z,3.80
2023-03-01T07:58:00.795Z,3.20
2023-03-01T07:59:35.217Z,3.20
2023-03-01T08:01:09.950Z,3.10
2023-03-01T08:02:43.120Z,3.00
2023-03-01T08:04:16.412Z,2.80
2023-03-01T08:05:49.534Z,2.70
2023-03-01T08:07:22.568Z,2.90
2023-03-01T08:08:56.424Z,3.00
2023-03-01T08:10:29.646Z,3.10
2023-03-01T08:12:02.852Z,3.30
2023-03-01T08:13:36.363Z,3.80
2023-03-01T08:15:12.374Z,4.20
2023-03-01T08:16:46.168Z,4.10
2023-03-01T08:18:20.568Z,4.20
2023-03-01T08:19:53.726Z,4.20
2023-03-01T08:21:26.927Z,4.40
2023-03-01T08:23:00.396Z,4.20
2023-03-01T08:24:33.538Z,4.60
2023-03-01T08:26:08.874Z,5.00
2023-03-01T08:27:41.909Z,5.20
2023-03-01T08:29:15.752Z,5.00
2023-03-01T08:44:59.643Z,5.30
2023-03-01T09:37:09.411Z,9.80
2023-03-01T09:38:42.605Z,10.20
2023-03-01T09:40:19.415Z,10.10
2023-03-01T09:42:00.700Z,9.90
2023-03-01T09:45:26.332Z,8.10
2023-03-01T09:47:00.124Z,8.50
2023-03-01T09:48:43.567Z,8.60
2023-03-01T09:50:20.717Z,8.40
2023-03-01T09:52:01.413Z,8.60
2023-03-01T09:53:36.168Z,8.60
2023-03-01T09:58:43.529Z,9.20
2023-03-01T10:00:26.063Z,8.80
2023-03-01T10:03:44.020Z,9.60
2023-03-01T10:05:33.539Z,9.60
2023-03-01T10:07:23.731Z,9.50
2023-03-01T10:09:00.025Z,10.40
2023-03-01T10:10:36.360Z,10.60
2023-03-01T10:12:13.474Z,10.60
2023-03-01T10:13:50.124Z,10.20
2023-03-01T10:15:32.337Z,10.70
2023-03-01T10:44:47.159Z,13.20
2023-03-01T10:46:28.899Z,13.60
2023-03-01T10:48:07.446Z,13.00
2023-03-01T10:54:35.486Z,11.80
2023-03-01T10:56:10.579Z,10.50
2023-03-01T10:57:44.147Z,9.80
2023-03-01T10:59:27.229Z,9.90
2023-03-01T11:01:02.328Z,11.00
2023-03-01T11:02:37.630Z,12.00
2023-03-01T11:04:15.935Z,12.30
2023-03-01T11:06:02.165Z,10.70
2023-03-01T11:07:49.733Z,9.20
2023-03-01T11:09:25.028Z,10.30
2023-03-01T11:12:41.406Z,11.10
2023-03-01T11:14:26.754Z,11.40
2023-03-01T11:16:01.978Z,12.00
2023-03-01T11:17:53.613Z,11.80
2023-03-01T11:19:28.815Z,12.70
2023-03-01T11:21:04.110Z,12.00
2023-03-01T11:22:38.125Z,12.60
2023-03-01T11:24:14.838Z,13.20
2023-03-01T11:26:01.609Z,11.70
2023-03-01T11:27:40.563Z,11.80
2023-03-01T11:29:20.961Z,11.60
2023-03-01T11:31:07.577Z,11.80
2023-03-01T11:32:45.294Z,12.30
2023-03-01T11:34:22.989Z,12.60
2023-03-01T11:36:02.283Z,13.80
2023-03-01T11:37:40.154Z,14.70
2023-03-01T11:39:23.741Z,13.90
2023-03-01T11:41:02.040Z,13.90
2023-03-01T11:42:48.393Z,14.50
2023-03-01T11:44:27.633Z,13.50
2023-03-01T11:46:40.059Z,13.40
2023-03-01T11:48:48.475Z,13.30
2023-03-01T11:50:30.777Z,13.40
2023-03-01T11:52:13.557Z,13.50
2023-03-01T11:53:58.024Z,13.40
2023-03-01T11:55:54.412Z,14.40
2023-03-01T11:57:46.620Z,14.70
2023-03-01T11:59:47.283Z,14.70
2023-03-01T12:01:33.148Z,14.10
2023-03-01T12:03:25.596Z,13.40
2023-03-01T12:05:26.604Z,13.60
2023-03-01T12:07:02.103Z,11.80
2023-03-01T12:08:41.020Z,9.70
2023-03-01T12:10:28.867Z,10.20
2023-03-01T12:12:19.687Z,9.80
2023-03-01T12:14:29.012Z,10.70
2023-03-01T12:16:25.908Z,10.00
2023-03-01T12:18:23.504Z,11.10
2023-03-01T12:20:12.086Z,10.80
2023-03-01T12:21:59.540Z,11.30
2023-03-01T12:25:29.881Z,12.60
2023-03-01T12:27:19.874Z,12.60
2023-03-01T12:29:11.281Z,12.70
2023-03-01T12:31:21.408Z,12.50
2023-03-01T12:35:08.323Z,12.20
2023-03-01T12:37:00.406Z,11.20
2023-03-01T12:38:39.601Z,11.80
2023-03-01T12:40:35.323Z,11.10
2023-03-01T12:42:18.554Z,11.30
2023-03-01T12:44:08.505Z,12.10
2023-03-01T12:45:50.877Z,11.90
2023-03-01T12:47:38.432Z,11.60
2023-03-01T12:49:15.518Z,10.90
2023-03-01T12:50:51.107Z,10.90
2023-03-01T12:52:37.845Z,11.20
2023-03-01T12:54:17.799Z,11.20
2023-03-01T12:55:52.514Z,11.50
2023-03-01T12:57:37.838Z,12.10
2023-03-01T12:59:19.905Z,12.10
2023-03-01T13:01:04.183Z,11.80
2023-03-01T13:02:43.636Z,11.60
2023-03-01T13:04:38.578Z,11.30
2023-03-01T13:06:18.772Z,11.30
2023-03-01T13:07:59.714Z,11.70
2023-03-01T13:09:41.133Z,11.40
2023-03-01T13:11:20.085Z,11.90
2023-03-01T13:13:05.455Z,12.00
2023-03-01T13:14:48.255Z,11.90
2023-03-01T13:16:43.834Z,11.50
2023-03-01T13:18:35.629Z,11.10
2023-03-01T13:20:16.503Z,11.20
2023-03-01T13:21:51.671Z,11.20
2023-03-01T13:23:29.990Z,11.50
2023-03-01T13:25:16.826Z,11.40
2023-03-01T13:27:23.703Z,11.20
2023-03-01T13:29:01.048Z,11.30
2023-03-01T13:30:45.032Z,11.00
2023-03-01T13:32:37.989Z,11.00
2023-03-01T13:34:52.940Z,10.60
2023-03-01T13:36:48.517Z,11.20
2023-03-01T13:38:47.814Z,11.60
2023-03-01T13:41:01.245Z,11.50
2023-03-01T13:42:41.663Z,11.30
2023-03-01T13:44:22.562Z,11.10
2023-03-01T13:45:57.293Z,10.90
2023-03-01T13:47:30.609Z,11.30
2023-03-01T13:49:03.793Z,11.80
2023-03-01T13:50:46.301Z,11.60
2023-03-01T13:52:40.790Z,11.60
2023-03-01T13:54:16.266Z,11.80
2023-03-01T13:55:50.807Z,11.60
2023-03-01T13:57:28.232Z,11.30
2023-03-01T13:59:06.337Z,11.20
2023-03-01T14:00:41.597Z,10.80
2023-03-01T14:02:17.507Z,10.40
2023-03-01T14:03:50.700Z,9.90
2023-03-01T14:05:23.960Z,9.60
2023-03-01T14:07:12.086Z,9.80
2023-03-01T14:08:46.519Z,10.10
2023-03-01T14:10:19.735Z,10.20
2023-03-01T14:12:06.288Z,9.70
2023-03-01T14:13:53.933Z,9.00
2023-03-01T14:15:33.915Z,9.00
2023-03-01T14:17:24.158Z,9.00
2023-03-01T14:19:09.472Z,8.80
2023-03-01T14:20:44.543Z,9.30
2023-03-01T14:22:22.251Z,9.50
2023-03-01T14:23:55.499Z,9.60
2023-03-01T14:25:31.896Z,9.70
2023-03-01T14:27:06.552Z,9.70
2023-03-01T14:28:40.158Z,9.50
2023-03-01T14:30:19.752Z,9.20
2023-03-01T14:31:53.877Z,9.40
2023-03-01T14:33:30.785Z,9.80
2023-03-01T14:35:04.810Z,9.90
2023-03-01T14:36:37.884Z,9.80
2023-03-01T14:38:23.222Z,9.40
2023-03-01T14:39:58.329Z,9.40
2023-03-01T14:41:31.505Z,8.90
2023-03-01T14:43:12.710Z,9.00
2023-03-01T14:44:49.210Z,8.70
2023-03-01T14:46:24.323Z,8.30
2023-03-01T14:48:00.380Z,8.40
2023-03-01T14:49:37.962Z,8.20
2023-03-01T14:51:14.242Z,8.40
2023-03-01T14:52:50.436Z,8.40
2023-03-01T14:54:27.467Z,8.60
2023-03-01T14:56:04.246Z,8.50
2023-03-01T14:57:37.429Z,8.20
2023-03-01T14:59:11.618Z,8.10
2023-03-01T15:00:50.428Z,7.90
2023-03-01T15:02:27.356Z,7.80
2023-03-01T15:04:02.336Z,7.70
2023-03-01T15:05:37.527Z,7.70
2023-03-01T15:07:15.417Z,7.70
2023-03-01T15:08:50.606Z,7.80
2023-03-01T15:10:25.923Z,7.70
2023-03-01T15:11:58.951Z,7.60
2023-03-01T15:13:34.395Z,7.60
2023-03-01T15:15:40.361Z,7.50
2023-03-01T15:17:28.501Z,7.50
2023-03-01T15:19:03.806Z,7.30
2023-03-01T15:20:38.384Z,7.50
2023-03-01T15:22:17.446Z,7.40
2023-03-01T15:23:54.341Z,7.40
2023-03-01T15:25:29.622Z,7.40
2023-03-01T15:27:07.867Z,7.40
2023-03-01T15:28:50.871Z,7.50
2023-03-01T15:30:26.785Z,7.50
2023-03-01T15:32:01.990Z,7.50
2023-03-01T15:33:37.775Z,7.50
2023-03-01T15:35:37.792Z,7.50
2023-03-01T15:37:42.337Z,7.70
2023-03-01T15:39:40.424Z,7.60
2023-03-01T15:41:26.510Z,7.40
2023-03-01T15:43:00.497Z,7.50
2023-03-01T15:44:43.279Z,7.40
2023-03-01T15:46:24.567Z,7.20
2023-03-01T15:48:02.449Z,7.20
2023-03-01T15:49:54.000Z,7.00
2023-03-01T15:51:34.210Z,6.90
2023-03-01T15:53:12.879Z,6.80
2023-03-01T15:54:46.920Z,6.70
2023-03-01T15:56:20.042Z,6.50
2023-03-01T15:58:01.500Z,6.30
2023-03-01T15:59:34.744Z,6.30
2023-03-01T16:01:14.505Z,6.20
2023-03-01T16:02:47.831Z,6.00
2023-03-01T16:04:24.830Z,5.90
2023-03-01T16:05:58.241Z,5.80
2023-03-01T16:07:32.109Z,5.70
2023-03-01T16:09:06.704Z,5.70
2023-03-01T16:10:40.396Z,5.70
2023-03-01T16:12:16.939Z,5.50
2023-03-01T16:13:50.830Z,5.40
2023-03-01T16:15:27.309Z,5.30
2023-03-01T16:17:00.412Z,5.20
2023-03-01T16:18:33.492Z,5.00
2023-03-01T16:20:08.749Z,4.90
2023-03-01T16:21:43.121Z,4.70
2023-03-01T16:23:17.283Z,4.50
2023-03-01T16:24:51.743Z,4.20
2023-03-01T16:26:24.838Z,4.10
2023-03-01T16:27:59.478Z,4.00
2023-03-01T16:29:32.592Z,3.80
2023-03-01T16:31:06.666Z,3.60
2023-03-01T16:32:41.044Z,3.40
2023-03-01T16:34:14.172Z,3.30
2023-03-01T16:35:47.294Z,3.20
2023-03-01T16:37:20.393Z,3.10
2023-03-01T16:38:53.857Z,3.00
2023-03-01T16:40:31.101Z,2.80
2023-03-01T16:42:04.292Z,2.60
2023-03-01T16:43:37.369Z,2.40
2023-03-01T16:45:22.728Z,2.40
2023-03-01T16:46:57.271Z,2.10
2023-03-01T16:48:30.317Z,2.00
2023-03-01T16:50:03.694Z,1.90
2023-03-01T16:51:37.294Z,1.80
2023-03-01T16:53:10.675Z,1.70
2023-03-01T16:54:43.730Z,1.50
2023-03-01T16:56:19.635Z,1.50
2023-03-01T16:57:53.075Z,1.40
2023-03-01T16:59:26.152Z,1.20
2023-03-01T17:01:05.446Z,1.20
2023-03-01T17:02:39.137Z,1.00
2023-03-01T17:04:13.417Z,1.00
2023-03-01T17:05:46.481Z,0.90
2023-03-01T17:07:19.547Z,0.80
2023-03-01T17:08:52.583Z,0.80
2023-03-01T17:10:25.872Z,0.70
2023-03-01T17:12:00.299Z,0.60
2023-03-01T17:13:33.369Z,0.50
2023-03-01T17:15:07.912Z,0.40
2023-03-01T17:16:41.057Z,0.30
2023-03-01T17:18:13.227Z,0.30
2023-03-01T17:19:46.248Z,0.30
2023-03-01T17:21:19.550Z,0.20
2023-03-01T17:22:53.177Z,0.10
2023-03-01T17:24:26.218Z,0.10
2023-03-01T17:26:00.100Z,0.00
2023-03-01T17:27:35.703Z,0.00
2023-03-01T17:29:08.845Z,-0.10
2023-03-01T17:30:44.976Z,-0.20
2023-03-01T17:32:18.085Z,-0.20
2023-03-01T17:33:52.212Z,-0.20
2023-03-01T17:35:25.344Z,-0.30
2023-03-01T17:36:58.378Z,-0.30
2023-03-01T17:38:31.429Z,-0.40
2023-03-01T17:40:04.932Z,-0.40
2023-03-01T17:41:38.051Z,-0.50
2023-03-01T17:43:12.493Z,-0.60
2023-03-01T17:44:45.591Z,-0.60
2023-03-01T17:46:19.196Z,-0.70
2023-03-01T17:47:52.279Z,-0.70
2023-03-01T17:49:25.326Z,-0.70
2023-03-01T17:50:58.786Z,-0.70
2023-03-01T17:52:31.924Z,-0.80
2023-03-01T17:54:05.326Z,-0.80
2023-03-01T17:55:38.787Z,-0.90
2023-03-01T17:57:11.844Z,-1.00
2023-03-01T17:58:46.789Z,-1.00
2023-03-01T18:00:20.565Z,-1.00
2023-03-01T18:01:53.795Z,-1.10
2023-03-01T18:03:26.856Z,-1.00
2023-03-01T18:05:00.685Z,-1.00
2023-03-01T18:06:34.286Z,-1.10
2023-03-01T18:08:07.598Z,-1.10
2023-03-01T18:09:40.749Z,-1.10
2023-03-01T18:11:14.456Z,-1.20
2023-03-01T18:12:47.817Z,-1.20
2023-03-01T18:14:22.243Z,-1.20
2023-03-01T18:16:00.779Z,-1.30
2023-03-01T18:17:34.170Z,-1.30
2023-03-01T18:19:07.571Z,-1.40
2023-03-01T18:20:41.024Z,-1.40
2023-03-01T18:23:48.362Z,-1.60
2023-03-01T18:25:22.259Z,-1.30
2023-03-01T18:26:55.370Z,-1.50
2023-03-01T18:28:28.492Z,-1.60
2023-03-01T18:30:03.052Z,-1.60
2023-03-01T18:31:36.887Z,-1.60
2023-03-01T18:33:10.226Z,-1.60
2023-03-01T18:34:43.383Z,-1.60
2023-03-01T18:36:21.674Z,-1.60
2023-03-01T18:37:54.861Z,-1.70
2023-03-01T18:39:28.007Z,-1.70
2023-03-01T18:41:01.065Z,-1.70
2023-03-01T18:42:34.126Z,-1.70
2023-03-01T18:44:08.283Z,-1.80
2023-03-01T18:45:45.152Z,-1.80
2023-03-01T18:47:18.931Z,-1.80
2023-03-01T18:48:53.344Z,-1.80
2023-03-01T18:50:26.588Z,-1.90
2023-03-01T18:51:59.619Z,-1.80
2023-03-01T18:53:32.652Z,-1.80
2023-03-01T18:55:06.664Z,-1.80
2023-03-01T18:56:39.968Z,-1.90
2023-03-01T18:58:13.343Z,-1.70
2023-03-01T18:59:46.491Z,-1.70
2023-03-01T19:01:22.721Z,-1.80
2023-03-01T19:02:56.030Z,-1.90
2023-03-01T19:04:29.244Z,-1.80
2023-03-01T19:06:02.469Z,-1.80
2023-03-01T19:07:35.549Z,-1.80
2023-03-01T19:09:09.429Z,-1.90
2023-03-01T19:10:42.479Z,-1.90
2023-03-01T19:12:15.489Z,-1.90
2023-03-01T19:13:51.812Z,-2.00
2023-03-01T19:15:24.976Z,-2.10
2023-03-01T19:16:59.445Z,-2.10
2023-03-01T19:18:32.504Z,-2.20
2023-03-01T19:20:06.555Z,-2.30
2023-03-01T19:21:39.617Z,-2.30
2023-03-01T19:23:13.499Z,-2.40
2023-03-01T19:24:46.731Z,-2.40
2023-03-01T19:26:21.495Z,-2.40
2023-03-01T19:27:54.583Z,-2.40
2023-03-01T19:29:27.811Z,-2.50
2023-03-01T19:31:02.331Z,-2.50
2023-03-01T19:32:36.898Z,-2.60
2023-03-01T19:34:11.934Z,-2.60
2023-03-01T19:35:45.301Z,-2.50
2023-03-01T19:37:18.495Z,-2.60
2023-03-01T19:38:51.545Z,-2.60
2023-03-01T19:40:24.632Z,-2.60
2023-03-01T19:41:57.695Z,-2.60
2023-03-01T19:43:30.770Z,-2.70
2023-03-01T19:45:03.876Z,-2.70
2023-03-01T19:46:37.329Z,-2.80
2023-03-01T19:48:11.760Z,-2.80
2023-03-01T19:49:44.874Z,-2.80
2023-03-01T19:51:17.957Z,-2.70
2023-03-01T19:52:51.097Z,-2.70
2023-03-01T19:54:24.199Z,-2.70
2023-03-01T19:56:02.061Z,-2.70
2023-03-01T19:57:35.143Z,-2.70
2023-03-01T19:59:08.523Z,-2.70
2023-03-01T20:00:45.909Z,-2.70
2023-03-01T20:02:18.974Z,-2.70
2023-03-01T20:03:53.413Z,-2.80
2023-03-01T20:05:26.538Z,-2.60
2023-03-01T20:06:59.605Z,-2.80
2023-03-01T20:08:32.944Z,-2.80
2023-03-01T20:10:07.046Z,-2.80
2023-03-01T20:11:42.181Z,-2.80
2023-03-01T20:13:15.497Z,-2.70
2023-03-01T20:14:50.140Z,-2.70
2023-03-01T20:16:24.372Z,-2.80
2023-03-01T20:17:57.868Z,-2.90
2023-03-01T20:19:32.342Z,-3.00
2023-03-01T20:21:14.631Z,-3.00
2023-03-01T20:22:54.716Z,-3.00
2023-03-01T20:24:27.885Z,-3.00
2023-03-01T20:26:05.195Z,-3.00
2023-03-01T20:27:38.450Z,-3.10
2023-03-01T20:29:11.899Z,-3.10
2023-03-01T20:30:45.755Z,-3.10
2023-03-01T20:32:18.914Z,-3.10
2023-03-01T20:33:51.981Z,-3.00
2023-03-01T20:35:26.369Z,-3.00
2023-03-01T20:36:59.470Z,-3.00
2023-03-01T20:38:32.719Z,-3.10
2023-03-01T20:40:07.221Z,-3.10
2023-03-01T20:41:40.753Z,-3.10
2023-03-01T20:43:13.974Z,-3.20
2023-03-01T20:44:47.295Z,-3.20
2023-03-01T20:46:20.465Z,-3.30
2023-03-01T20:47:53.817Z,-3.20
2023-03-01T20:49:27.195Z,-3.30
2023-03-01T20:51:05.602Z,-3.20
2023-03-01T20:52:47.167Z,-3.30
2023-03-01T20:54:20.832Z,-3.30
2023-03-01T20:55:53.136Z,-3.30
2023-03-01T20:57:26.235Z,-3.30
2023-03-01T20:58:59.366Z,-3.30
2023-03-01T21:00:32.634Z,-3.30
2023-03-01T21:02:05.704Z,-3.40
2023-03-01T21:03:38.929Z,-3.40
2023-03-01T21:05:12.085Z,-3.30
2023-03-01T21:06:46.579Z,-3.40
2023-03-01T21:08:19.605Z,-3.40
2023-03-01T21:09:52.748Z,-3.40
2023-03-01T21:11:26.287Z,-3.50
2023-03-01T21:12:59.436Z,-3.40
2023-03-01T21:14:42.258Z,-3.50
2023-03-01T21:16:16.903Z,-3.40
2023-03-01T21:17:50.203Z,-3.60
2023-03-01T21:19:25.827Z,-3.50
2023-03-01T21:21:01.033Z,-3.60
2023-03-01T21:22:35.969Z,-3.60
2023-03-01T21:24:10.577Z,-3.60
2023-03-01T21:25:45.260Z,-3.60
2023-03-01T21:27:18.452Z,-3.70
2023-03-01T21:28:55.621Z,-3.70
2023-03-01T21:30:28.867Z,-3.50
2023-03-01T21:32:04.725Z,-3.30
2023-03-01T21:33:39.922Z,-3.40
2023-03-01T21:35:13.335Z,-3.50
2023-03-01T21:36:46.442Z,-3.50
2023-03-01T21:38:20.028Z,-3.60
2023-03-01T21:39:53.081Z,-3.60
2023-03-01T21:41:28.171Z,-3.60
2023-03-01T21:43:01.247Z,-3.70
2023-03-01T21:44:35.031Z,-3.70
2023-03-01T21:46:12.032Z,-3.70
2023-03-01T21:47:45.111Z,-3.80
2023-03-01T21:49:18.619Z,-3.80
2023-03-01T21:50:56.859Z,-3.80
2023-03-01T21:52:29.925Z,-3.80
2023-03-01T21:54:05.639Z,-3.60
2023-03-01T21:55:38.769Z,-3.50
2023-03-01T21:57:12.011Z,-3.60
2023-03-01T21:58:44.449Z,-3.60
2023-03-01T22:00:18.569Z,-3.60
2023-03-01T22:01:53.079Z,-3.70
2023-03-01T22:03:26.555Z,-3.80
2023-03-01T22:04:59.659Z,-3.80
2023-03-01T22:06:38.190Z,-3.80
2023-03-01T22:08:11.248Z,-3.90
2023-03-01T22:09:45.657Z,-3.80
2023-03-01T22:11:20.542Z,-3.80
2023-03-01T22:12:54.361Z,-3.80
2023-03-01T22:14:27.493Z,-3.80
2023-03-01T22:16:01.443Z,-3.90
2023-03-01T22:17:34.523Z,-4.00
2023-03-01T22:19:08.143Z,-4.00
2023-03-01T22:20:42.577Z,-4.00
2023-03-01T22:22:15.625Z,-3.90
2023-03-01T22:23:48.180Z,-4.00
2023-03-01T22:25:22.574Z,-4.00
2023-03-01T22:26:55.881Z,-4.10
2023-03-01T22:28:28.976Z,-4.10
2023-03-01T22:30:02.043Z,-3.90
2023-03-01T22:31:35.352Z,-4.00
2023-03-01T22:33:08.470Z,-4.00
2023-03-01T22:34:41.571Z,-4.00
2023-03-01T22:36:14.685Z,-4.00
2023-03-01T22:37:47.762Z,-4.10
2023-03-01T22:39:21.898Z,-4.00
2023-03-01T22:41:02.048Z,-4.00
2023-03-01T22:42:35.464Z,-3.90
2023-03-01T22:44:08.631Z,-4.00
2023-03-01T22:45:41.717Z,-4.00
2023-03-01T22:47:14.833Z,-4.10
2023-03-01T22:48:48.580Z,-4.10
2023-03-01T22:50:21.896Z,-4.20
2023-03-01T22:51:54.952Z,-4.20
2023-03-01T22:53:28.028Z,-4.20
2023-03-01T22:55:01.338Z,-4.20
2023-03-01T22:56:37.622Z,-4.20
2023-03-01T22:58:10.644Z,-4.20
2023-03-01T22:59:43.692Z,-4.30
2023-03-01T23:01:17.943Z,-4.30
2023-03-01T23:02:51.100Z,-4.30
2023-03-01T23:04:25.038Z,-4.40
2023-03-01T23:05:57.093Z,-4.40
2023-03-01T23:07:30.168Z,-4.50
2023-03-01T23:09:04.409Z,-4.40
2023-03-01T23:10:41.736Z,-4.50
2023-03-01T23:12:16.123Z,-4.50
2023-03-01T23:13:48.741Z,-4.50
2023-03-01T23:15:21.890Z,-4.50
2023-03-01T23:16:55.100Z,-4.50
2023-03-01T23:18:28.413Z,-4.50
2023-03-01T23:20:01.869Z,-4.50
2023-03-01T23:21:35.091Z,-4.60
2023-03-01T23:23:07.137Z,-4.60
2023-03-01T23:24:40.401Z,-4.60
2023-03-01T23:26:13.716Z,-4.60
2023-03-01T23:27:48.114Z,-4.50
2023-03-01T23:29:21.632Z,-4.40
2023-03-01T23:30:56.347Z,-4.50
2023-03-01T23:32:29.502Z,-4.50
2023-03-01T23:34:03.064Z,-4.40
2023-03-01T23:35:39.755Z,-4.30
2023-03-01T23:37:12.795Z,-4.40
2023-03-01T23:38:45.059Z,-4.40
2023-03-01T23:40:18.244Z,-4.40
2023-03-01T23:41:51.748Z,-4.50
2023-03-01T23:43:26.168Z,-4.50
2023-03-01T23:44:59.229Z,-4.60
2023-03-01T23:46:34.708Z,-4.70
2023-03-01T23:48:08.119Z,-4.80
2023-03-01T23:49:41.469Z,-4.60
2023-03-01T23:51:15.530Z,-4.70
2023-03-01T23:52:48.684Z,-4.60
2023-03-01T23:54:23.609Z,-4.60
2023-03-01T23:55:57.023Z,-4.70
2023-03-01T23:57:30.067Z,-4.70
2023-03-01T23:59:09.037Z,-4.70
